Time;durP1;ratioP1;P1;durP2;ratioP2;P2;SDS_P1;SDS_P2;PMS_P1;PMS_P2;Temp;Humidity;BMP_temperature;BMP_pressure;BME280_temperature;BME280_humidity;BME280_pressure;Samples;Min_cycle;Max_cycle;Signal;HPM_P1;HPM_P2
2023/07/30 00:00:18;;;;;;;10.27;2.85;;;17.80;99.90;;;;;;5033237;28;20034;-91
2023/07/30 00:02:44;;;;;;;6.40;3.40;;;17.70;99.90;;;;;;5025973;28;20033;-80
2023/07/30 00:05:10;;;;;;;8.23;3.00;;;17.70;99.90;;;;;;5026612;28;20742;-92
2023/07/30 00:07:35;;;;;;;9.25;2.97;;;17.80;99.90;;;;;;5038098;28;20524;-79
2023/07/30 00:10:01;;;;;;;8.57;2.88;;;17.70;99.90;;;;;;5034912;28;20744;-79
2023/07/30 00:12:27;;;;;;;4.97;2.60;;;17.70;99.90;;;;;;5028820;28;20107;-80
2023/07/30 00:14:52;;;;;;;9.60;2.70;;;17.70;99.90;;;;;;5027076;28;20029;-80
2023/07/30 00:17:18;;;;;;;8.82;2.60;;;17.60;99.90;;;;;;5030520;28;20036;-80
2023/07/30 00:19:43;;;;;;;7.45;2.40;;;17.50;99.90;;;;;;5034080;28;20056;-80
2023/07/30 00:22:09;;;;;;;8.65;2.67;;;17.60;99.90;;;;;;5035008;28;20021;-80
2023/07/30 00:24:34;;;;;;;9.35;2.40;;;17.60;99.90;;;;;;5028025;28;20911;-80
2023/07/30 00:27:00;;;;;;;8.45;2.40;;;17.60;99.90;;;;;;5026606;28;20036;-79
2023/07/30 00:29:26;;;;;;;6.97;2.30;;;17.50;99.90;;;;;;5031283;28;20630;-92
2023/07/30 00:31:51;;;;;;;11.35;2.60;;;17.40;99.90;;;;;;5029988;28;20128;-91
2023/07/30 00:34:17;;;;;;;5.00;2.08;;;17.40;99.90;;;;;;5038601;28;20029;-91
2023/07/30 00:36:42;;;;;;;7.88;2.65;;;17.40;99.90;;;;;;5038812;28;20087;-92
2023/07/30 00:39:11;;;;;;;7.93;2.58;;;17.30;99.90;;;;;;5028388;28;20138;-93
2023/07/30 00:41:36;;;;;;;6.80;2.40;;;17.40;99.90;;;;;;5028512;28;20025;-92
2023/07/30 00:44:02;;;;;;;13.55;2.85;;;17.40;99.90;;;;;;5037209;28;20076;-89
2023/07/30 00:46:28;;;;;;;11.65;2.90;;;17.40;99.90;;;;;;5038316;28;20028;-91
2023/07/30 00:48:53;;;;;;;7.30;2.30;;;17.30;99.90;;;;;;5032606;28;20037;-89
2023/07/30 00:51:20;;;;;;;15.20;2.70;;;17.40;99.90;;;;;;5040917;28;20021;-89
2023/07/30 00:53:45;;;;;;;9.80;2.45;;;17.20;99.90;;;;;;5029529;28;20085;-92
2023/07/30 00:56:11;;;;;;;4.13;2.53;;;17.20;99.90;;;;;;5029319;28;20108;-92
2023/07/30 00:58:37;;;;;;;8.23;2.63;;;17.10;99.90;;;;;;5028294;28;20474;-79
2023/07/30 01:01:03;;;;;;;10.15;2.53;;;17.10;99.90;;;;;;5026867;28;20033;-93
2023/07/30 01:03:28;;;;;;;7.85;2.90;;;17.10;99.90;;;;;;5028306;28;20033;-94
2023/07/30 01:05:54;;;;;;;5.70;2.90;;;17.00;99.90;;;;;;5030381;28;20120;-94
2023/07/30 01:08:20;;;;;;;6.43;2.60;;;17.00;99.90;;;;;;5027018;28;20520;-80
2023/07/30 01:10:48;;;;;;;11.35;2.55;;;17.00;99.90;;;;;;5034104;28;20030;-79
2023/07/30 01:13:16;;;;;;;8.70;2.33;;;17.00;99.90;;;;;;5027185;28;20404;-80
2023/07/30 01:15:42;;;;;;;13.02;2.78;;;17.10;99.90;;;;;;5025802;28;20032;-79
2023/07/30 01:18:08;;;;;;;13.98;2.92;;;17.00;99.90;;;;;;5027532;28;20033;-79
2023/07/30 01:20:33;;;;;;;12.90;2.85;;;17.00;99.90;;;;;;5026993;28;20025;-93
2023/07/30 01:22:59;;;;;;;7.88;2.60;;;16.90;99.90;;;;;;5033123;28;20470;-78
2023/07/30 01:28:05;;;;;;;7.25;2.38;;;16.90;99.90;;;;;;5076971;23;20522;-95
2023/07/30 01:30:41;;;;;;;8.35;2.33;;;16.90;99.90;;;;;;5007657;28;20108;-91
2023/07/30 01:33:07;;;;;;;8.98;2.40;;;16.80;99.90;;;;;;5009309;28;20080;-80
2023/07/30 01:35:34;;;;;;;10.35;3.78;;;16.80;99.90;;;;;;4998513;28;20030;-80
2023/07/30 01:38:02;;;;;;;8.07;2.67;;;16.80;99.90;;;;;;4992708;28;20029;-79
2023/07/30 01:40:28;;;;;;;5.60;2.38;;;16.80;99.90;;;;;;5005386;28;20077;-81
2023/07/30 01:42:53;;;;;;;7.93;2.80;;;16.70;99.90;;;;;;5002470;28;20478;-81
2023/07/30 01:45:19;;;;;;;7.93;2.90;;;16.70;99.90;;;;;;5008515;28;20022;-80
2023/07/30 01:47:44;;;;;;;12.95;2.75;;;16.70;99.90;;;;;;5007906;28;20022;-81
2023/07/30 01:50:10;;;;;;;9.55;2.50;;;16.60;99.90;;;;;;5003256;28;20022;-80
2023/07/30 01:52:36;;;;;;;9.98;2.75;;;16.60;99.90;;;;;;5008242;28;20065;-94
2023/07/30 01:55:01;;;;;;;12.60;2.13;;;16.50;99.90;;;;;;5009177;28;20057;-92
2023/07/30 01:57:29;;;;;;;7.32;2.60;;;16.50;99.90;;;;;;5010260;28;20111;-94
2023/07/30 01:59:55;;;;;;;7.50;2.50;;;16.60;99.90;;;;;;5007980;28;21166;-92
2023/07/30 02:02:20;;;;;;;9.63;2.55;;;16.60;99.90;;;;;;5006925;28;20360;-82
2023/07/30 02:04:46;;;;;;;9.27;2.45;;;16.60;99.90;;;;;;5005629;28;20030;-80
2023/07/30 02:07:12;;;;;;;9.55;2.60;;;16.50;99.90;;;;;;5007159;28;20081;-80
2023/07/30 02:09:37;;;;;;;6.85;2.42;;;16.40;99.90;;;;;;5010294;28;20033;-92
2023/07/30 02:12:03;;;;;;;6.35;2.30;;;16.40;99.90;;;;;;5030027;28;20036;-93
2023/07/30 02:14:28;;;;;;;8.07;2.50;;;16.40;99.90;;;;;;5014299;28;20048;-91
2023/07/30 02:16:54;;;;;;;9.88;2.47;;;16.30;99.90;;;;;;5009859;28;20515;-94
2023/07/30 02:19:20;;;;;;;9.32;2.42;;;16.40;99.90;;;;;;5007697;28;20018;-93
2023/07/30 02:21:45;;;;;;;6.18;2.85;;;16.40;99.90;;;;;;5007326;28;20050;-95
2023/07/30 02:24:11;;;;;;;7.95;2.08;;;16.40;99.90;;;;;;5007413;28;20021;-92
2023/07/30 02:26:40;;;;;;;7.95;2.25;;;16.40;99.90;;;;;;5008110;28;20505;-80
2023/07/30 02:29:06;;;;;;;11.65;2.42;;;16.50;99.90;;;;;;5005219;28;20026;-87
2023/07/30 02:31:32;;;;;;;8.48;2.60;;;16.40;99.90;;;;;;5005328;28;20053;-94
2023/07/30 02:33:57;;;;;;;11.27;2.30;;;16.40;99.90;;;;;;5008193;28;20026;-95
2023/07/30 02:36:24;;;;;;;15.30;3.03;;;16.40;99.90;;;;;;5007911;28;20029;-93
2023/07/30 02:38:50;;;;;;;9.48;2.40;;;16.30;99.90;;;;;;5002985;28;20034;-93
2023/07/30 02:41:19;;;;;;;9.95;2.53;;;16.40;99.90;;;;;;5009177;28;20529;-92
2023/07/30 02:43:44;;;;;;;7.68;2.45;;;16.30;99.90;;;;;;5024201;28;20026;-92
2023/07/30 02:46:10;;;;;;;10.23;2.78;;;16.30;99.90;;;;;;5007745;28;20025;-94
2023/07/30 02:48:36;;;;;;;10.02;2.53;;;16.30;99.90;;;;;;5007819;28;20026;-93
2023/07/30 02:51:01;;;;;;;9.15;2.72;;;16.20;99.90;;;;;;5009323;28;20026;-93
2023/07/30 02:53:27;;;;;;;9.02;2.47;;;16.30;99.90;;;;;;5019767;28;20033;-92
2023/07/30 02:55:53;;;;;;;5.20;2.65;;;16.30;99.90;;;;;;5009101;28;20060;-94
2023/07/30 02:58:18;;;;;;;15.20;2.63;;;16.30;99.90;;;;;;5001511;28;20389;-80
2023/07/30 03:00:44;;;;;;;6.60;2.55;;;16.30;99.90;;;;;;5005347;28;20041;-81
2023/07/30 03:03:09;;;;;;;7.38;2.53;;;16.30;99.90;;;;;;5006845;28;20111;-80
2023/07/30 03:05:35;;;;;;;16.15;3.17;;;16.30;99.90;;;;;;5005509;28;20010;-80
2023/07/30 03:08:01;;;;;;;7.10;2.60;;;16.30;99.90;;;;;;5006304;28;20034;-80
2023/07/30 03:10:29;;;;;;;14.70;3.13;;;16.30;99.90;;;;;;5004362;28;20045;-80
2023/07/30 03:12:57;;;;;;;7.53;2.67;;;16.30;99.90;;;;;;5003615;28;20030;-80
2023/07/30 03:15:22;;;;;;;7.82;2.47;;;16.30;99.90;;;;;;5004355;28;20025;-80
2023/07/30 03:17:48;;;;;;;8.52;2.55;;;16.30;99.90;;;;;;5004217;28;20030;-79
2023/07/30 03:20:13;;;;;;;16.52;2.80;;;16.20;99.90;;;;;;5006061;28;20378;-79
2023/07/30 03:22:39;;;;;;;10.15;2.70;;;16.10;99.90;;;;;;5012780;28;20037;-95
2023/07/30 03:25:05;;;;;;;16.67;3.35;;;16.10;99.90;;;;;;5007713;28;20363;-96
2023/07/30 03:27:31;;;;;;;10.45;2.60;;;16.10;99.90;;;;;;5009267;28;20473;-93
2023/07/30 03:29:56;;;;;;;8.52;2.85;;;15.90;99.90;;;;;;5011116;28;20065;-93
2023/07/30 03:32:22;;;;;;;6.07;2.65;;;15.80;99.90;;;;;;5010349;28;20469;-79
2023/07/30 03:34:47;;;;;;;5.93;2.47;;;15.90;99.90;;;;;;5007094;28;20018;-93
2023/07/30 03:37:13;;;;;;;11.13;2.38;;;15.80;99.90;;;;;;5012611;28;20184;-92
2023/07/30 03:39:38;;;;;;;15.48;2.90;;;15.90;99.90;;;;;;5008356;28;20026;-94
2023/07/30 03:42:06;;;;;;;12.50;2.40;;;15.90;99.90;;;;;;5011669;28;20026;-94
2023/07/30 03:44:32;;;;;;;18.85;2.95;;;15.90;99.90;;;;;;5011123;28;20030;-92
2023/07/30 03:46:57;;;;;;;7.07;2.80;;;15.80;99.90;;;;;;5012640;28;20022;-95
2023/07/30 03:49:23;;;;;;;10.23;3.15;;;15.80;99.90;;;;;;5009167;28;20041;-91
2023/07/30 03:51:49;;;;;;;10.77;3.10;;;15.80;99.90;;;;;;5013307;28;20024;-96
2023/07/30 03:54:14;;;;;;;11.98;2.90;;;15.80;99.90;;;;;;5014321;28;20109;-91
2023/07/30 03:56:40;;;;;;;9.88;3.20;;;15.80;99.90;;;;;;5005439;28;20102;-80
2023/07/30 03:59:05;;;;;;;8.88;3.13;;;15.90;99.90;;;;;;4992731;28;20038;-80
2023/07/30 04:01:31;;;;;;;14.85;2.75;;;15.90;99.90;;;;;;5002274;28;20526;-79
2023/07/30 04:03:57;;;;;;;8.48;2.88;;;16.00;99.90;;;;;;5006559;28;20069;-78
2023/07/30 04:06:22;;;;;;;11.70;3.55;;;15.90;99.90;;;;;;5009437;28;20054;-78
2023/07/30 04:08:50;;;;;;;17.30;3.65;;;16.00;99.90;;;;;;5005259;28;20056;-78
2023/07/30 04:11:16;;;;;;;12.20;3.35;;;15.90;99.90;;;;;;4997891;28;20026;-78
2023/07/30 04:13:42;;;;;;;21.98;5.15;;;16.00;99.90;;;;;;5006671;28;20018;-78
2023/07/30 04:16:08;;;;;;;14.93;3.55;;;15.90;99.90;;;;;;5003968;28;20038;-78
2023/07/30 04:18:34;;;;;;;15.50;3.72;;;16.00;99.90;;;;;;5005857;28;20038;-78
2023/07/30 04:20:59;;;;;;;16.05;4.07;;;16.10;99.90;;;;;;5008207;28;20029;-78
2023/07/30 04:23:25;;;;;;;18.52;4.90;;;16.20;99.90;;;;;;5005575;28;20101;-78
2023/07/30 04:25:51;;;;;;;20.35;4.07;;;16.00;99.90;;;;;;5007408;28;20037;-78
2023/07/30 04:28:17;;;;;;;15.13;4.45;;;16.00;99.90;;;;;;5004359;28;20026;-79
2023/07/30 04:30:43;;;;;;;16.17;4.57;;;16.10;99.90;;;;;;5015032;28;20036;-78
2023/07/30 04:33:09;;;;;;;13.43;4.78;;;16.10;99.90;;;;;;5003934;28;20026;-81
2023/07/30 04:35:35;;;;;;;15.50;4.93;;;16.10;99.90;;;;;;5005445;28;20026;-77
2023/07/30 04:38:00;;;;;;;11.05;4.72;;;16.20;99.90;;;;;;5002968;28;20039;-78
2023/07/30 04:40:26;;;;;;;21.58;4.93;;;16.20;99.90;;;;;;5003949;28;20033;-78
2023/07/30 04:42:51;;;;;;;13.93;5.43;;;16.20;99.90;;;;;;5003382;28;20026;-78
2023/07/30 04:45:17;;;;;;;15.30;5.22;;;16.20;99.90;;;;;;5145423;22;20079;-91
2023/07/30 04:47:43;;;;;;;21.42;5.60;;;16.20;99.90;;;;;;4994935;28;20498;-90
2023/07/30 04:50:08;;;;;;;16.45;5.70;;;16.30;99.90;;;;;;4992759;28;20435;-78
2023/07/30 04:52:34;;;;;;;17.15;5.72;;;16.20;99.90;;;;;;4988840;28;20541;-80
2023/07/30 04:55:00;;;;;;;18.05;6.68;;;16.20;99.90;;;;;;4988302;28;20054;-88
2023/07/30 04:57:25;;;;;;;19.55;5.93;;;16.30;99.90;;;;;;5000969;28;20116;-90
2023/07/30 04:59:51;;;;;;;23.38;6.70;;;16.40;99.90;;;;;;4996604;28;20065;-85
2023/07/30 05:02:17;;;;;;;19.67;6.38;;;16.40;99.90;;;;;;4992750;28;20029;-91
2023/07/30 05:04:42;;;;;;;23.85;7.50;;;16.40;99.90;;;;;;4988795;28;20100;-80
2023/07/30 05:07:08;;;;;;;19.70;6.75;;;16.50;99.90;;;;;;4986495;28;20124;-80
2023/07/30 05:09:34;;;;;;;18.77;7.22;;;16.60;99.90;;;;;;4987890;28;20045;-80
2023/07/30 05:11:59;;;;;;;21.48;7.72;;;16.60;99.90;;;;;;4987042;28;20827;-80
2023/07/30 05:14:25;;;;;;;24.60;8.02;;;16.50;99.90;;;;;;5009633;28;20026;-80
2023/07/30 05:16:50;;;;;;;30.17;8.88;;;16.60;99.90;;;;;;4989198;28;20030;-79
2023/07/30 05:19:18;;;;;;;26.70;8.13;;;16.60;99.90;;;;;;4988577;28;20034;-81
2023/07/30 05:21:44;;;;;;;25.15;8.77;;;16.70;99.90;;;;;;4987172;28;20571;-80
2023/07/30 05:24:10;;;;;;;26.55;9.07;;;16.70;99.90;;;;;;4987346;28;20025;-81
2023/07/30 05:26:35;;;;;;;23.88;8.20;;;16.80;99.90;;;;;;4986231;28;20469;-79
2023/07/30 05:29:01;;;;;;;32.45;8.20;;;16.80;99.90;;;;;;4989164;28;20104;-80
2023/07/30 05:31:26;;;;;;;23.98;7.63;;;16.90;99.90;;;;;;4987466;28;20600;-78
2023/07/30 05:33:52;;;;;;;27.10;8.32;;;16.90;99.90;;;;;;4989891;28;20080;-80
2023/07/30 05:36:20;;;;;;;28.70;8.40;;;17.00;99.90;;;;;;4986666;28;20068;-80
2023/07/30 05:38:46;;;;;;;29.38;7.85;;;17.10;99.90;;;;;;4982996;28;20113;-79
2023/07/30 05:41:11;;;;;;;22.70;8.60;;;17.10;99.90;;;;;;4987922;28;20489;-79
2023/07/30 05:43:37;;;;;;;27.20;6.65;;;17.10;99.90;;;;;;4988325;28;20026;-79
2023/07/30 05:46:02;;;;;;;18.00;7.10;;;17.20;99.90;;;;;;4993038;28;20524;-79
2023/07/30 05:48:28;;;;;;;25.88;7.50;;;17.20;99.90;;;;;;4987906;28;20053;-80
2023/07/30 05:50:54;;;;;;;21.42;6.55;;;17.20;99.90;;;;;;4987561;28;20112;-79
2023/07/30 05:53:19;;;;;;;20.50;7.78;;;17.20;99.90;;;;;;4986566;28;20026;-80
2023/07/30 05:55:45;;;;;;;22.35;6.60;;;17.30;99.90;;;;;;4988913;28;20057;-79
2023/07/30 05:58:11;;;;;;;27.13;7.45;;;17.30;99.90;;;;;;4987957;28;20030;-80
2023/07/30 06:00:37;;;;;;;29.13;6.60;;;17.30;99.90;;;;;;4987330;28;20072;-80
2023/07/30 06:03:03;;;;;;;19.35;6.68;;;17.30;99.90;;;;;;4987426;28;20026;-80
2023/07/30 06:05:28;;;;;;;27.63;6.35;;;17.40;99.90;;;;;;4989659;28;20026;-79
2023/07/30 06:07:56;;;;;;;23.20;6.45;;;17.40;99.90;;;;;;4985142;28;20049;-79
2023/07/30 06:10:22;;;;;;;19.33;6.55;;;17.50;99.90;;;;;;4993620;28;20022;-80
2023/07/30 06:12:48;;;;;;;24.60;6.68;;;17.50;99.90;;;;;;4985667;28;20528;-79
2023/07/30 06:15:15;;;;;;;26.45;7.00;;;17.50;99.90;;;;;;4986470;28;20448;-80
2023/07/30 06:17:42;;;;;;;25.77;6.95;;;17.50;99.90;;;;;;4987344;28;20177;-80
2023/07/30 06:20:11;;;;;;;20.27;6.80;;;17.60;99.90;;;;;;4993085;28;20109;-78
2023/07/30 06:22:36;;;;;;;29.13;7.03;;;17.40;99.90;;;;;;4988083;28;20045;-80
2023/07/30 06:25:02;;;;;;;21.70;6.35;;;17.60;99.90;;;;;;4986828;28;20022;-81
2023/07/30 06:27:30;;;;;;;16.02;6.03;;;17.50;99.90;;;;;;4994334;28;20409;-77
2023/07/30 06:29:55;;;;;;;25.48;7.43;;;17.60;99.90;;;;;;4987853;28;20029;-78
2023/07/30 06:32:21;;;;;;;27.75;7.88;;;17.60;99.90;;;;;;4986959;28;20100;-76
2023/07/30 06:34:46;;;;;;;19.58;7.15;;;17.70;99.90;;;;;;4994348;28;20027;-77
2023/07/30 06:37:12;;;;;;;21.20;7.82;;;17.70;99.90;;;;;;4993549;28;20030;-78
2023/07/30 06:39:38;;;;;;;23.02;7.30;;;17.70;99.90;;;;;;4986779;28;20604;-79
2023/07/30 06:42:03;;;;;;;24.05;7.13;;;17.80;99.90;;;;;;4993171;28;20580;-77
2023/07/30 06:44:29;;;;;;;19.75;6.93;;;17.80;99.90;;;;;;4986405;28;20037;-79
2023/07/30 06:46:55;;;;;;;30.67;7.97;;;17.90;99.90;;;;;;4985215;28;21628;-78
2023/07/30 06:49:21;;;;;;;25.77;7.30;;;17.90;99.90;;;;;;5010258;28;20088;-78
2023/07/30 06:54:38;;;;;;;23.08;7.10;;;17.90;99.90;;;;;;4967214;28;20121;-77
2023/07/30 06:57:04;;;;;;;18.98;7.30;;;18.10;99.90;;;;;;4983265;28;20037;-78
2023/07/30 06:59:30;;;;;;;22.10;7.63;;;18.20;99.90;;;;;;4988480;28;20032;-78
2023/07/30 07:01:55;;;;;;;20.38;7.43;;;18.20;99.90;;;;;;4985632;28;20041;-79
2023/07/30 07:04:21;;;;;;;23.02;7.38;;;18.20;99.90;;;;;;4985958;28;20018;-78
2023/07/30 07:06:47;;;;;;;25.08;6.57;;;18.10;99.90;;;;;;4983573;28;20526;-79
2023/07/30 07:09:12;;;;;;;22.45;7.10;;;18.20;99.90;;;;;;4986670;28;20037;-78
2023/07/30 07:11:45;;;;;;;24.20;6.85;;;18.10;99.90;;;;;;5017255;28;20112;-80
2023/07/30 07:14:11;;;;;;;23.08;6.50;;;18.30;99.90;;;;;;5008724;28;20042;-77
2023/07/30 07:16:37;;;;;;;18.23;6.00;;;18.20;99.90;;;;;;4994902;28;20105;-77
2023/07/30 07:19:03;;;;;;;18.42;6.28;;;18.20;99.90;;;;;;5006083;28;20030;-79
2023/07/30 07:21:28;;;;;;;27.35;6.00;;;18.30;99.90;;;;;;4989928;28;20014;-78
2023/07/30 07:23:55;;;;;;;15.88;5.68;;;18.40;99.90;;;;;;4987229;28;20029;-79
2023/07/30 07:26:21;;;;;;;21.40;5.93;;;18.40;99.90;;;;;;4991546;28;20025;-80
2023/07/30 07:28:46;;;;;;;22.40;5.57;;;18.50;99.90;;;;;;5013445;28;20038;-78
2023/07/30 07:31:12;;;;;;;17.48;5.82;;;18.50;99.80;;;;;;4985926;28;20022;-76
2023/07/30 07:33:37;;;;;;;22.63;5.63;;;18.50;99.70;;;;;;5011255;28;20253;-80
2023/07/30 07:36:05;;;;;;;22.60;5.75;;;18.50;99.90;;;;;;4986681;28;20022;-78
2023/07/30 07:38:32;;;;;;;21.52;6.00;;;18.50;99.90;;;;;;5002446;28;20037;-78
2023/07/30 07:40:58;;;;;;;24.67;6.00;;;18.70;99.50;;;;;;4985486;28;20030;-80
2023/07/30 07:43:24;;;;;;;23.92;5.63;;;18.70;99.70;;;;;;4985941;28;20037;-78
2023/07/30 07:45:50;;;;;;;18.17;5.40;;;18.80;99.60;;;;;;5001485;28;20030;-78
2023/07/30 07:48:15;;;;;;;18.02;5.65;;;18.90;99.50;;;;;;4986867;28;20061;-78
2023/07/30 07:50:55;;;;;;;18.98;5.57;;;18.80;99.40;;;;;;5006552;28;20374;-82
2023/07/30 07:53:21;;;;;;;24.40;5.43;;;18.80;98.90;;;;;;4984516;28;20030;-80
2023/07/30 07:55:46;;;;;;;20.95;6.45;;;18.80;99.30;;;;;;4982500;28;20030;-77
2023/07/30 07:58:12;;;;;;;27.45;6.20;;;18.60;99.20;;;;;;4981822;28;20480;-77
2023/07/30 08:00:40;;;;;;;26.70;5.45;;;18.70;99.50;;;;;;4978591;28;20079;-79
2023/07/30 08:03:05;;;;;;;25.05;5.72;;;18.70;99.30;;;;;;4983442;28;20076;-90
2023/07/30 08:05:31;;;;;;;19.52;5.05;;;18.80;99.40;;;;;;4994161;28;20406;-86
2023/07/30 08:07:56;;;;;;;22.30;5.03;;;18.90;99.40;;;;;;4990440;28;20053;-92
2023/07/30 08:10:22;;;;;;;18.75;5.60;;;18.70;99.40;;;;;;4996854;28;20501;-87
2023/07/30 08:12:48;;;;;;;24.50;5.07;;;18.70;99.40;;;;;;4989927;28;20031;-90
2023/07/30 08:15:14;;;;;;;17.63;4.68;;;18.80;99.10;;;;;;4990114;28;20042;-83
2023/07/30 08:17:40;;;;;;;18.60;4.65;;;18.90;99.00;;;;;;4988528;28;20042;-82
2023/07/30 08:20:06;;;;;;;22.17;4.47;;;18.90;99.20;;;;;;4987208;28;20050;-77
2023/07/30 08:22:31;;;;;;;22.25;4.80;;;18.90;98.80;;;;;;4984740;28;20549;-75
2023/07/30 08:24:57;;;;;;;14.13;4.15;;;18.90;99.20;;;;;;4987088;28;20023;-77
2023/07/30 08:27:23;;;;;;;19.48;4.72;;;18.80;99.10;;;;;;4985401;28;20033;-76
2023/07/30 08:29:48;;;;;;;21.02;5.05;;;18.90;99.20;;;;;;4987306;28;20027;-87
2023/07/30 08:32:14;;;;;;;17.33;4.22;;;19.00;99.30;;;;;;4990022;28;20562;-87
2023/07/30 08:34:39;;;;;;;13.68;4.43;;;19.10;98.70;;;;;;4988861;28;20058;-86
2023/07/30 08:37:05;;;;;;;25.05;4.60;;;19.30;98.60;;;;;;4988252;28;20029;-87
2023/07/30 08:39:31;;;;;;;15.93;4.25;;;19.30;98.10;;;;;;4988286;28;20021;-90
2023/07/30 08:41:56;;;;;;;21.13;4.35;;;19.20;98.00;;;;;;5026945;28;20029;-87
2023/07/30 08:44:43;;;;;;;14.52;3.70;;;19.20;98.50;;;;;;5004749;28;20041;-90
2023/07/30 08:47:09;;;;;;;15.48;4.13;;;19.30;98.30;;;;;;5001147;28;20038;-87
2023/07/30 08:49:35;;;;;;;22.35;3.85;;;19.40;98.10;;;;;;5000086;28;20022;-89
2023/07/30 08:52:07;;;;;;;19.00;3.67;;;19.50;97.90;;;;;;4997423;28;20034;-88
2023/07/30 08:54:37;;;;;;;16.80;3.75;;;19.60;97.50;;;;;;4999514;28;20014;-89
2023/07/30 08:57:03;;;;;;;12.40;3.55;;;19.60;97.30;;;;;;5014112;28;20030;-90
2023/07/30 08:59:42;;;;;;;14.15;3.15;;;19.60;97.10;;;;;;4989491;28;20433;-88
2023/07/30 09:02:19;;;;;;;18.25;2.90;;;19.60;97.00;;;;;;4993137;28;20060;-82
2023/07/30 09:04:50;;;;;;;14.10;2.92;;;19.70;97.00;;;;;;5009687;28;20129;-84
2023/07/30 09:07:16;;;;;;;17.70;3.10;;;19.90;96.60;;;;;;4985456;28;20025;-83
2023/07/30 09:09:43;;;;;;;8.73;2.97;;;19.80;96.00;;;;;;4993151;28;20033;-84
2023/07/30 09:12:15;;;;;;;16.48;2.72;;;19.80;96.50;;;;;;4984849;28;20015;-82
2023/07/30 09:14:44;;;;;;;25.20;3.67;;;19.70;96.50;;;;;;5001094;28;20104;-84
2023/07/30 09:17:11;;;;;;;14.40;2.70;;;20.00;97.00;;;;;;4986017;28;20716;-89
2023/07/30 09:19:37;;;;;;;10.73;3.08;;;20.20;96.10;;;;;;5013462;28;20029;-88
2023/07/30 09:22:06;;;;;;;12.82;2.83;;;20.30;95.80;;;;;;4996723;28;20462;-84
2023/07/30 09:24:32;;;;;;;14.85;2.50;;;20.60;95.30;;;;;;4995554;28;20030;-84
2023/07/30 09:27:02;;;;;;;12.85;3.30;;;20.50;95.10;;;;;;4987219;28;20022;-84
2023/07/30 09:29:31;;;;;;;20.40;3.95;;;20.30;95.40;;;;;;4980031;28;20037;-83
2023/07/30 09:31:57;;;;;;;18.48;2.90;;;20.20;94.80;;;;;;4988039;28;20299;-89
2023/07/30 09:34:24;;;;;;;12.23;3.05;;;20.30;95.60;;;;;;4982854;28;20021;-80
2023/07/30 09:36:56;;;;;;;13.45;3.15;;;20.30;95.40;;;;;;4984725;28;20028;-79
2023/07/30 09:39:23;;;;;;;11.10;2.72;;;20.20;95.40;;;;;;4983633;28;20030;-81
2023/07/30 09:41:51;;;;;;;16.23;2.55;;;20.50;95.60;;;;;;4983120;28;20093;-79
2023/07/30 09:44:18;;;;;;;12.63;3.03;;;20.70;95.00;;;;;;5005885;28;20638;-81
2023/07/30 09:46:45;;;;;;;11.27;2.60;;;20.70;95.00;;;;;;4983069;28;20030;-81
2023/07/30 09:49:11;;;;;;;14.93;3.22;;;20.60;94.40;;;;;;5144533;22;20041;-80
2023/07/30 09:51:41;;;;;;;15.73;2.50;;;20.50;94.60;;;;;;5014103;28;20563;-83
2023/07/30 09:54:11;;;;;;;18.75;3.20;;;20.50;94.80;;;;;;5016179;28;20532;-87
2023/07/30 09:56:39;;;;;;;17.65;2.50;;;20.40;94.30;;;;;;5011816;28;20039;-85
2023/07/30 09:59:08;;;;;;;139.43;59.10;;;20.10;94.80;;;;;;5018206;28;20065;-88
2023/07/30 10:01:43;;;;;;;18.67;2.30;;;20.10;95.60;;;;;;5018317;28;20083;-82
2023/07/30 10:04:09;;;;;;;18.70;2.15;;;20.10;95.80;;;;;;5023555;28;20033;-83
2023/07/30 10:06:39;;;;;;;16.48;3.10;;;20.00;96.10;;;;;;5017433;28;20026;-77
2023/07/30 10:09:06;;;;;;;13.13;2.70;;;19.80;97.30;;;;;;5010303;28;20063;-77
2023/07/30 10:11:34;;;;;;;14.65;3.03;;;19.80;97.30;;;;;;5013072;28;20072;-77
2023/07/30 10:14:00;;;;;;;20.77;3.17;;;19.70;98.20;;;;;;5009512;28;20025;-77
2023/07/30 10:16:27;;;;;;;13.10;2.70;;;19.80;97.80;;;;;;5011826;28;20500;-77
2023/07/30 10:18:59;;;;;;;12.88;2.95;;;20.10;97.70;;;;;;5009264;28;20041;-77
2023/07/30 10:21:29;;;;;;;13.40;2.60;;;20.40;96.50;;;;;;5010455;28;20045;-77
2023/07/30 10:24:03;;;;;;;12.00;2.38;;;20.70;96.30;;;;;;5005558;28;20165;-77
2023/07/30 10:26:31;;;;;;;15.63;3.58;;;21.30;94.70;;;;;;5015344;28;20029;-89
2023/07/30 10:29:19;;;;;;;10.80;2.60;;;21.50;94.30;;;;;;5009173;28;20013;-93
2023/07/30 10:31:55;;;;;;;13.65;2.55;;;22.00;93.80;;;;;;5014046;28;20473;-92
2023/07/30 10:34:22;;;;;;;14.38;2.70;;;22.10;92.50;;;;;;5010387;28;20064;-91
2023/07/30 10:36:51;;;;;;;13.32;2.42;;;22.30;92.70;;;;;;5015906;28;20018;-92
2023/07/30 10:39:18;;;;;;;15.88;3.20;;;22.20;91.50;;;;;;5017180;28;20034;-89
2023/07/30 10:41:50;;;;;;;10.02;2.60;;;22.10;91.60;;;;;;5021255;28;20083;-90
2023/07/30 10:44:22;;;;;;;11.03;2.33;;;21.90;90.40;;;;;;5014377;28;20025;-91
2023/07/30 10:46:48;;;;;;;11.88;2.28;;;22.30;90.70;;;;;;5010195;28;20038;-89
2023/07/30 10:49:13;;;;;;;10.90;2.42;;;22.40;89.60;;;;;;5015354;28;20033;-88
2023/07/30 10:51:41;;;;;;;13.05;2.75;;;22.30;87.30;;;;;;5019353;28;20079;-88
2023/07/30 10:54:08;;;;;;;6.35;1.80;;;22.10;89.40;;;;;;5020312;28;20045;-89
2023/07/30 10:56:38;;;;;;;8.07;2.17;;;22.30;90.00;;;;;;5018064;28;20656;-88
2023/07/30 10:59:07;;;;;;;12.02;2.28;;;22.10;87.50;;;;;;5023018;28;20112;-82
2023/07/30 11:01:41;;;;;;;12.00;2.33;;;22.00;89.80;;;;;;5013479;28;20026;-89
2023/07/30 11:04:10;;;;;;;13.13;1.95;;;21.80;88.40;;;;;;5014629;28;20022;-89
2023/07/30 11:06:36;;;;;;;6.97;1.70;;;21.40;90.40;;;;;;5016922;28;20052;-83
2023/07/30 11:09:02;;;;;;;11.75;2.22;;;21.20;91.40;;;;;;5017849;28;20478;-91
2023/07/30 11:11:28;;;;;;;11.93;2.05;;;21.10;91.30;;;;;;5029645;28;20058;-85
2023/07/30 11:13:54;;;;;;;9.20;2.03;;;21.10;90.90;;;;;;5012224;28;20058;-90
2023/07/30 11:16:45;;;;;;;9.43;2.40;;;20.90;91.60;;;;;;5024610;28;20030;-77
2023/07/30 11:19:13;;;;;;;9.27;1.83;;;21.10;91.30;;;;;;5016336;28;20120;-77
2023/07/30 11:21:48;;;;;;;9.95;2.35;;;21.10;91.60;;;;;;5012421;28;20482;-78
2023/07/30 11:24:13;;;;;;;12.85;2.88;;;21.10;93.20;;;;;;5010802;28;20034;-79
2023/07/30 11:26:39;;;;;;;8.38;2.35;;;20.80;95.20;;;;;;5018826;28;20111;-78
2023/07/30 11:29:18;;;;;;;4.65;1.65;;;20.30;96.50;;;;;;5013382;28;20032;-78
2023/07/30 11:31:44;;;;;;;6.43;1.45;;;20.00;96.10;;;;;;5012936;28;20076;-78
2023/07/30 11:34:14;;;;;;;5.13;1.20;;;19.40;97.00;;;;;;5013477;28;20535;-78
2023/07/30 11:36:41;;;;;;;5.03;1.50;;;19.10;97.10;;;;;;5146401;22;20050;-78
2023/07/30 11:39:07;;;;;;;5.78;1.33;;;18.80;97.80;;;;;;4991769;28;20109;-79
2023/07/30 11:41:33;;;;;;;5.78;1.50;;;18.70;98.40;;;;;;4991506;28;20320;-81
2023/07/30 11:43:59;;;;;;;7.60;1.50;;;18.50;98.90;;;;;;4992680;28;20072;-79
2023/07/30 11:46:24;;;;;;;11.63;1.92;;;18.50;99.20;;;;;;4990850;28;20033;-78
2023/07/30 11:49:09;;;;;;;5.55;1.50;;;18.40;98.90;;;;;;4992720;28;20701;-80
2023/07/30 11:51:35;;;;;;;4.78;1.52;;;18.20;99.70;;;;;;5147691;22;20050;-85
2023/07/30 11:54:02;;;;;;;5.53;1.60;;;17.70;99.90;;;;;;5015625;28;20025;-86
2023/07/30 11:56:29;;;;;;;4.68;1.42;;;17.80;99.90;;;;;;5014198;28;20021;-87
2023/07/30 11:59:04;;;;;;;5.57;1.50;;;17.90;99.90;;;;;;5012465;28;20068;-82
2023/07/30 12:01:36;;;;;;;8.25;1.65;;;18.00;99.90;;;;;;4994112;28;20654;-90
2023/07/30 12:04:04;;;;;;;3.63;1.85;;;18.20;99.90;;;;;;4990703;28;20076;-86
2023/07/30 12:06:45;;;;;;;13.60;1.90;;;18.50;99.90;;;;;;5018498;28;20025;-85
2023/07/30 12:09:19;;;;;;;6.63;2.00;;;18.80;99.90;;;;;;5017727;28;20021;-88
2023/07/30 12:12:03;;;;;;;6.47;1.60;;;19.10;99.90;;;;;;5018222;28;20040;-87
2023/07/30 12:14:48;;;;;;;4.00;1.73;;;19.40;98.70;;;;;;5001338;28;20026;-88
2023/07/30 12:17:14;;;;;;;4.05;1.70;;;19.60;98.40;;;;;;5000899;28;20068;-85
2023/07/30 12:19:40;;;;;;;6.68;1.55;;;19.70;98.50;;;;;;5020310;28;20658;-90
2023/07/30 12:22:06;;;;;;;10.00;1.85;;;19.50;98.10;;;;;;4996465;28;20072;-77
2023/07/30 12:24:32;;;;;;;6.35;2.17;;;19.70;99.50;;;;;;5016922;28;20057;-77
2023/07/30 12:27:00;;;;;;;10.65;2.35;;;19.70;99.30;;;;;;5006393;28;20572;-78
2023/07/30 12:29:26;;;;;;;12.63;2.15;;;20.10;99.20;;;;;;5015736;28;20484;-75
2023/07/30 12:31:53;;;;;;;8.13;1.83;;;20.30;97.70;;;;;;5000690;28;20768;-79
2023/07/30 12:34:19;;;;;;;9.82;2.17;;;20.50;98.70;;;;;;5022082;28;20112;-88
2023/07/30 12:36:45;;;;;;;9.45;2.08;;;20.80;97.00;;;;;;5006769;28;20758;-88
2023/07/30 12:39:11;;;;;;;26.02;8.02;;;21.20;96.50;;;;;;5009672;28;20037;-88
2023/07/30 12:41:39;;;;;;;7.30;1.83;;;21.30;95.70;;;;;;5018473;28;20018;-85
2023/07/30 12:44:09;;;;;;;10.35;2.17;;;21.20;94.60;;;;;;5022064;28;20072;-86